sensor_id;sensor_type;location;lat;lon;timestamp;P1;durP1;ratioP1;P2;durP2;ratioP2
6638;SDS011;3355;52.882;8.430;2023-07-13T00:01:29;5.43;;;4.93;;
6638;SDS011;3355;52.882;8.430;2023-07-13T00:03:57;6.60;;;5.27;;
6638;SDS011;3355;52.882;8.430;2023-07-13T00:06:24;7.33;;;5.07;;
6638;SDS011;3355;52.882;8.430;2023-07-13T00:08:51;8.87;;;5.33;;
6638;SDS011;3355;52.882;8.430;2023-07-13T00:11:19;7.70;;;5.30;;
6638;SDS011;3355;52.882;8.430;2023-07-13T00:13:46;6.80;;;6.10;;
6638;SDS011;3355;52.882;8.430;2023-07-13T00:16:13;8.87;;;6.23;;
6638;SDS011;3355;52.882;8.430;2023-07-13T00:18:40;6.00;;;5.17;;
6638;SDS011;3355;52.882;8.430;2023-07-13T00:21:07;6.80;;;5.67;;
6638;SDS011;3355;52.882;8.430;2023-07-13T00:23:35;6.07;;;5.50;;
6638;SDS011;3355;52.882;8.430;2023-07-13T00:26:03;6.30;;;4.93;;
6638;SDS011;3355;52.882;8.430;2023-07-13T00:28:31;7.03;;;5.50;;
6638;SDS011;3355;52.882;8.430;2023-07-13T00:30:59;5.33;;;4.83;;
6638;SDS011;3355;52.882;8.430;2023-07-13T00:33:26;6.40;;;5.80;;
6638;SDS011;3355;52.882;8.430;2023-07-13T00:35:54;6.77;;;5.27;;
6638;SDS011;3355;52.882;8.430;2023-07-13T00:38:21;6.57;;;5.47;;
6638;SDS011;3355;52.882;8.430;2023-07-13T00:40:48;8.60;;;5.17;;
6638;SDS011;3355;52.882;8.430;2023-07-13T00:43:16;7.10;;;5.13;;
6638;SDS011;3355;52.882;8.430;2023-07-13T00:48:53;5.37;;;4.87;;
6638;SDS011;3355;52.882;8.430;2023-07-13T00:51:24;6.00;;;5.40;;
6638;SDS011;3355;52.882;8.430;2023-07-13T00:53:54;5.50;;;4.83;;
6638;SDS011;3355;52.882;8.430;2023-07-13T00:56:23;6.03;;;5.23;;
6638;SDS011;3355;52.882;8.430;2023-07-13T00:58:51;6.30;;;4.90;;
6638;SDS011;3355;52.882;8.430;2023-07-13T01:01:19;6.23;;;5.73;;
6638;SDS011;3355;52.882;8.430;2023-07-13T01:03:46;6.93;;;5.43;;
6638;SDS011;3355;52.882;8.430;2023-07-13T01:06:14;5.87;;;4.90;;
6638;SDS011;3355;52.882;8.430;2023-07-13T01:08:42;5.33;;;4.80;;
6638;SDS011;3355;52.882;8.430;2023-07-13T01:11:09;6.43;;;5.73;;
6638;SDS011;3355;52.882;8.430;2023-07-13T01:13:36;9.00;;;5.20;;
6638;SDS011;3355;52.882;8.430;2023-07-13T01:16:04;6.90;;;5.23;;
6638;SDS011;3355;52.882;8.430;2023-07-13T01:18:35;11.50;;;4.70;;
6638;SDS011;3355;52.882;8.430;2023-07-13T01:21:04;6.47;;;5.33;;
6638;SDS011;3355;52.882;8.430;2023-07-13T01:23:32;7.57;;;5.27;;
6638;SDS011;3355;52.882;8.430;2023-07-13T01:25:59;6.40;;;5.73;;
6638;SDS011;3355;52.882;8.430;2023-07-13T01:28:27;9.73;;;5.40;;
6638;SDS011;3355;52.882;8.430;2023-07-13T01:30:55;6.57;;;5.30;;
6638;SDS011;3355;52.882;8.430;2023-07-13T01:33:23;6.53;;;4.90;;
6638;SDS011;3355;52.882;8.430;2023-07-13T01:35:50;7.50;;;5.20;;
6638;SDS011;3355;52.882;8.430;2023-07-13T01:38:19;6.80;;;4.80;;
6638;SDS011;3355;52.882;8.430;2023-07-13T01:40:47;7.70;;;5.50;;
6638;SDS011;3355;52.882;8.430;2023-07-13T01:43:14;8.30;;;5.33;;
6638;SDS011;3355;52.882;8.430;2023-07-13T01:45:41;14.83;;;5.27;;
6638;SDS011;3355;52.882;8.430;2023-07-13T01:48:09;11.70;;;5.57;;
6638;SDS011;3355;52.882;8.430;2023-07-13T01:50:36;6.93;;;5.10;;
6638;SDS011;3355;52.882;8.430;2023-07-13T01:53:03;10.37;;;4.70;;
6638;SDS011;3355;52.882;8.430;2023-07-13T01:55:32;5.67;;;4.50;;
6638;SDS011;3355;52.882;8.430;2023-07-13T01:57:59;5.17;;;4.67;;
6638;SDS011;3355;52.882;8.430;2023-07-13T02:00:26;7.00;;;4.23;;
6638;SDS011;3355;52.882;8.430;2023-07-13T02:02:53;7.17;;;4.63;;
6638;SDS011;3355;52.882;8.430;2023-07-13T02:05:19;6.73;;;4.40;;
6638;SDS011;3355;52.882;8.430;2023-07-13T02:07:46;6.03;;;4.10;;
6638;SDS011;3355;52.882;8.430;2023-07-13T02:10:14;4.70;;;3.70;;
6638;SDS011;3355;52.882;8.430;2023-07-13T02:12:43;4.47;;;3.87;;
6638;SDS011;3355;52.882;8.430;2023-07-13T02:15:10;10.23;;;4.70;;
6638;SDS011;3355;52.882;8.430;2023-07-13T02:17:37;6.23;;;4.53;;
6638;SDS011;3355;52.882;8.430;2023-07-13T02:20:04;5.50;;;3.80;;
6638;SDS011;3355;52.882;8.430;2023-07-13T02:22:32;4.90;;;4.33;;
6638;SDS011;3355;52.882;8.430;2023-07-13T02:24:59;11.57;;;4.17;;
6638;SDS011;3355;52.882;8.430;2023-07-13T02:27:26;4.93;;;3.97;;
6638;SDS011;3355;52.882;8.430;2023-07-13T02:29:54;9.23;;;4.03;;
6638;SDS011;3355;52.882;8.430;2023-07-13T02:32:21;9.00;;;4.53;;
6638;SDS011;3355;52.882;8.430;2023-07-13T02:34:50;7.57;;;4.50;;
6638;SDS011;3355;52.882;8.430;2023-07-13T02:37:17;12.17;;;4.70;;
6638;SDS011;3355;52.882;8.430;2023-07-13T02:39:44;7.43;;;4.10;;
6638;SDS011;3355;52.882;8.430;2023-07-13T02:42:10;9.30;;;4.07;;
6638;SDS011;3355;52.882;8.430;2023-07-13T02:44:37;5.53;;;4.10;;
6638;SDS011;3355;52.882;8.430;2023-07-13T02:47:06;4.23;;;3.50;;
6638;SDS011;3355;52.882;8.430;2023-07-13T02:49:33;7.43;;;3.70;;
6638;SDS011;3355;52.882;8.430;2023-07-13T02:52:00;7.17;;;3.73;;
6638;SDS011;3355;52.882;8.430;2023-07-13T02:54:27;9.87;;;4.40;;
6638;SDS011;3355;52.882;8.430;2023-07-13T02:56:54;6.70;;;3.57;;
6638;SDS011;3355;52.882;8.430;2023-07-13T02:59:21;8.57;;;4.07;;
6638;SDS011;3355;52.882;8.430;2023-07-13T03:01:47;5.93;;;4.00;;
6638;SDS011;3355;52.882;8.430;2023-07-13T03:04:16;5.60;;;3.90;;
6638;SDS011;3355;52.882;8.430;2023-07-13T03:06:44;10.50;;;3.70;;
6638;SDS011;3355;52.882;8.430;2023-07-13T03:09:11;10.50;;;3.60;;
6638;SDS011;3355;52.882;8.430;2023-07-13T03:11:38;5.80;;;3.40;;
6638;SDS011;3355;52.882;8.430;2023-07-13T03:14:05;6.90;;;3.70;;
6638;SDS011;3355;52.882;8.430;2023-07-13T03:16:32;6.50;;;3.17;;
6638;SDS011;3355;52.882;8.430;2023-07-13T03:18:58;9.20;;;3.87;;
6638;SDS011;3355;52.882;8.430;2023-07-13T03:21:27;6.83;;;3.40;;
6638;SDS011;3355;52.882;8.430;2023-07-13T03:23:54;4.60;;;3.20;;
6638;SDS011;3355;52.882;8.430;2023-07-13T03:26:21;9.10;;;4.37;;
6638;SDS011;3355;52.882;8.430;2023-07-13T03:28:47;8.23;;;3.60;;
6638;SDS011;3355;52.882;8.430;2023-07-13T03:31:15;10.30;;;3.07;;
6638;SDS011;3355;52.882;8.430;2023-07-13T03:33:43;4.30;;;3.40;;
6638;SDS011;3355;52.882;8.430;2023-07-13T03:36:12;6.33;;;3.27;;
6638;SDS011;3355;52.882;8.430;2023-07-13T03:38:42;9.03;;;3.27;;
6638;SDS011;3355;52.882;8.430;2023-07-13T03:41:09;7.97;;;3.40;;
6638;SDS011;3355;52.882;8.430;2023-07-13T03:43:36;9.97;;;3.30;;
6638;SDS011;3355;52.882;8.430;2023-07-13T03:46:02;5.57;;;3.20;;
6638;SDS011;3355;52.882;8.430;2023-07-13T03:48:29;5.53;;;2.53;;
6638;SDS011;3355;52.882;8.430;2023-07-13T03:50:56;5.53;;;2.53;;
6638;SDS011;3355;52.882;8.430;2023-07-13T03:53:23;9.73;;;3.03;;
6638;SDS011;3355;52.882;8.430;2023-07-13T03:55:51;5.03;;;2.90;;
6638;SDS011;3355;52.882;8.430;2023-07-13T03:58:26;7.17;;;2.93;;
6638;SDS011;3355;52.882;8.430;2023-07-13T04:00:54;7.57;;;2.77;;
6638;SDS011;3355;52.882;8.430;2023-07-13T04:03:22;8.70;;;2.90;;
6638;SDS011;3355;52.882;8.430;2023-07-13T04:05:49;9.53;;;2.80;;
6638;SDS011;3355;52.882;8.430;2023-07-13T04:08:16;6.00;;;2.57;;
6638;SDS011;3355;52.882;8.430;2023-07-13T04:10:44;9.03;;;3.20;;
6638;SDS011;3355;52.882;8.430;2023-07-13T04:13:13;8.53;;;3.23;;
6638;SDS011;3355;52.882;8.430;2023-07-13T04:15:40;4.77;;;2.73;;
6638;SDS011;3355;52.882;8.430;2023-07-13T04:18:06;8.80;;;3.70;;
6638;SDS011;3355;52.882;8.430;2023-07-13T04:20:34;11.07;;;3.43;;
6638;SDS011;3355;52.882;8.430;2023-07-13T04:23:00;8.33;;;3.30;;
6638;SDS011;3355;52.882;8.430;2023-07-13T04:25:27;5.80;;;3.20;;
6638;SDS011;3355;52.882;8.430;2023-07-13T04:27:54;6.60;;;3.10;;
6638;SDS011;3355;52.882;8.430;2023-07-13T04:30:23;4.33;;;2.53;;
6638;SDS011;3355;52.882;8.430;2023-07-13T04:32:50;11.03;;;3.77;;
6638;SDS011;3355;52.882;8.430;2023-07-13T04:35:17;8.50;;;3.13;;
6638;SDS011;3355;52.882;8.430;2023-07-13T04:37:45;7.10;;;2.67;;
6638;SDS011;3355;52.882;8.430;2023-07-13T04:40:15;7.13;;;3.07;;
6638;SDS011;3355;52.882;8.430;2023-07-13T04:42:42;8.27;;;3.13;;
6638;SDS011;3355;52.882;8.430;2023-07-13T04:45:09;5.63;;;3.50;;
6638;SDS011;3355;52.882;8.430;2023-07-13T04:47:37;5.80;;;2.90;;
6638;SDS011;3355;52.882;8.430;2023-07-13T04:50:05;5.70;;;3.30;;
6638;SDS011;3355;52.882;8.430;2023-07-13T04:52:32;18.27;;;3.30;;
6638;SDS011;3355;52.882;8.430;2023-07-13T04:55:00;6.87;;;3.07;;
6638;SDS011;3355;52.882;8.430;2023-07-13T04:57:27;8.20;;;3.90;;
6638;SDS011;3355;52.882;8.430;2023-07-13T04:59:54;8.37;;;3.73;;
6638;SDS011;3355;52.882;8.430;2023-07-13T05:02:20;8.53;;;2.90;;
6638;SDS011;3355;52.882;8.430;2023-07-13T05:04:49;9.37;;;3.90;;
6638;SDS011;3355;52.882;8.430;2023-07-13T05:07:15;8.63;;;3.13;;
6638;SDS011;3355;52.882;8.430;2023-07-13T05:09:42;4.23;;;2.97;;
6638;SDS011;3355;52.882;8.430;2023-07-13T05:12:09;6.80;;;3.20;;
6638;SDS011;3355;52.882;8.430;2023-07-13T05:14:36;5.23;;;3.30;;
6638;SDS011;3355;52.882;8.430;2023-07-13T05:17:03;8.00;;;3.13;;
6638;SDS011;3355;52.882;8.430;2023-07-13T05:19:30;8.57;;;4.20;;
6638;SDS011;3355;52.882;8.430;2023-07-13T05:21:59;8.10;;;3.43;;
6638;SDS011;3355;52.882;8.430;2023-07-13T05:24:26;8.03;;;3.43;;
6638;SDS011;3355;52.882;8.430;2023-07-13T05:26:53;6.00;;;3.43;;
6638;SDS011;3355;52.882;8.430;2023-07-13T05:29:20;6.50;;;3.43;;
6638;SDS011;3355;52.882;8.430;2023-07-13T05:31:47;8.43;;;3.70;;
6638;SDS011;3355;52.882;8.430;2023-07-13T05:34:14;7.40;;;3.20;;
6638;SDS011;3355;52.882;8.430;2023-07-13T05:36:41;7.57;;;3.43;;
6638;SDS011;3355;52.882;8.430;2023-07-13T05:39:10;8.00;;;3.90;;
6638;SDS011;3355;52.882;8.430;2023-07-13T05:41:36;8.07;;;3.97;;
6638;SDS011;3355;52.882;8.430;2023-07-13T05:44:03;6.13;;;3.13;;
6638;SDS011;3355;52.882;8.430;2023-07-13T05:46:30;5.83;;;3.30;;
6638;SDS011;3355;52.882;8.430;2023-07-13T05:48:57;7.00;;;3.10;;
6638;SDS011;3355;52.882;8.430;2023-07-13T05:51:24;7.10;;;3.43;;
6638;SDS011;3355;52.882;8.430;2023-07-13T05:53:51;7.60;;;3.27;;
6638;SDS011;3355;52.882;8.430;2023-07-13T05:56:19;10.70;;;4.00;;
6638;SDS011;3355;52.882;8.430;2023-07-13T05:58:47;6.47;;;3.50;;
6638;SDS011;3355;52.882;8.430;2023-07-13T06:01:15;9.63;;;3.60;;
6638;SDS011;3355;52.882;8.430;2023-07-13T06:03:42;6.17;;;4.03;;
6638;SDS011;3355;52.882;8.430;2023-07-13T06:06:09;5.70;;;3.53;;
6638;SDS011;3355;52.882;8.430;2023-07-13T06:08:36;5.77;;;3.20;;
6638;SDS011;3355;52.882;8.430;2023-07-13T06:11:04;10.30;;;3.53;;
6638;SDS011;3355;52.882;8.430;2023-07-13T06:13:35;5.77;;;3.70;;
6638;SDS011;3355;52.882;8.430;2023-07-13T06:16:02;8.50;;;3.73;;
6638;SDS011;3355;52.882;8.430;2023-07-13T06:18:30;4.87;;;2.70;;
6638;SDS011;3355;52.882;8.430;2023-07-13T06:20:58;6.83;;;3.53;;
6638;SDS011;3355;52.882;8.430;2023-07-13T06:23:25;9.60;;;3.23;;
6638;SDS011;3355;52.882;8.430;2023-07-13T06:25:52;6.80;;;3.53;;
6638;SDS011;3355;52.882;8.430;2023-07-13T06:28:19;5.77;;;3.80;;
6638;SDS011;3355;52.882;8.430;2023-07-13T06:30:47;8.47;;;3.60;;
6638;SDS011;3355;52.882;8.430;2023-07-13T06:33:14;5.30;;;3.77;;
6638;SDS011;3355;52.882;8.430;2023-07-13T06:35:41;5.67;;;3.10;;
6638;SDS011;3355;52.882;8.430;2023-07-13T06:38:08;7.57;;;3.30;;
6638;SDS011;3355;52.882;8.430;2023-07-13T06:40:35;7.57;;;3.50;;
6638;SDS011;3355;52.882;8.430;2023-07-13T06:43:02;4.67;;;3.20;;
6638;SDS011;3355;52.882;8.430;2023-07-13T06:45:29;5.60;;;3.50;;
6638;SDS011;3355;52.882;8.430;2023-07-13T06:47:57;6.53;;;3.80;;
6638;SDS011;3355;52.882;8.430;2023-07-13T06:50:23;6.30;;;3.93;;
6638;SDS011;3355;52.882;8.430;2023-07-13T06:52:50;10.47;;;3.40;;
6638;SDS011;3355;52.882;8.430;2023-07-13T06:55:17;6.80;;;3.70;;
6638;SDS011;3355;52.882;8.430;2023-07-13T06:57:44;6.93;;;3.57;;
6638;SDS011;3355;52.882;8.430;2023-07-13T07:00:11;5.40;;;3.80;;
6638;SDS011;3355;52.882;8.430;2023-07-13T07:02:39;5.93;;;3.80;;
6638;SDS011;3355;52.882;8.430;2023-07-13T07:05:07;7.93;;;4.20;;
6638;SDS011;3355;52.882;8.430;2023-07-13T07:07:34;14.03;;;4.30;;
6638;SDS011;3355;52.882;8.430;2023-07-13T07:10:01;6.87;;;3.97;;
6638;SDS011;3355;52.882;8.430;2023-07-13T07:12:29;6.30;;;4.07;;
6638;SDS011;3355;52.882;8.430;2023-07-13T07:14:56;7.17;;;4.60;;
6638;SDS011;3355;52.882;8.430;2023-07-13T07:17:23;9.63;;;4.70;;
6638;SDS011;3355;52.882;8.430;2023-07-13T07:19:51;9.13;;;4.47;;
6638;SDS011;3355;52.882;8.430;2023-07-13T07:22:20;5.73;;;4.13;;
6638;SDS011;3355;52.882;8.430;2023-07-13T07:24:47;8.13;;;4.40;;
6638;SDS011;3355;52.882;8.430;2023-07-13T07:27:14;5.63;;;4.00;;
6638;SDS011;3355;52.882;8.430;2023-07-13T07:29:41;9.50;;;4.27;;
6638;SDS011;3355;52.882;8.430;2023-07-13T07:32:08;9.97;;;4.50;;
6638;SDS011;3355;52.882;8.430;2023-07-13T07:34:34;5.17;;;4.00;;
6638;SDS011;3355;52.882;8.430;2023-07-13T07:37:02;6.03;;;4.10;;
6638;SDS011;3355;52.882;8.430;2023-07-13T07:39:30;9.03;;;4.60;;
6638;SDS011;3355;52.882;8.430;2023-07-13T07:41:57;5.97;;;4.73;;
6638;SDS011;3355;52.882;8.430;2023-07-13T07:44:24;8.33;;;4.27;;
6638;SDS011;3355;52.882;8.430;2023-07-13T07:46:52;5.27;;;3.80;;
6638;SDS011;3355;52.882;8.430;2023-07-13T07:49:19;4.47;;;4.03;;
6638;SDS011;3355;52.882;8.430;2023-07-13T07:51:46;6.97;;;3.90;;
6638;SDS011;3355;52.882;8.430;2023-07-13T07:54:13;8.10;;;4.63;;
6638;SDS011;3355;52.882;8.430;2023-07-13T07:56:41;5.47;;;4.43;;
6638;SDS011;3355;52.882;8.430;2023-07-13T07:59:08;6.50;;;4.80;;
6638;SDS011;3355;52.882;8.430;2023-07-13T08:01:35;6.60;;;4.97;;
6638;SDS011;3355;52.882;8.430;2023-07-13T08:04:02;7.57;;;4.10;;
6638;SDS011;3355;52.882;8.430;2023-07-13T08:06:29;7.00;;;4.20;;
6638;SDS011;3355;52.882;8.430;2023-07-13T08:08:58;7.30;;;4.00;;
6638;SDS011;3355;52.882;8.430;2023-07-13T08:11:27;5.93;;;4.23;;
6638;SDS011;3355;52.882;8.430;2023-07-13T08:13:55;7.17;;;4.30;;
6638;SDS011;3355;52.882;8.430;2023-07-13T08:16:22;7.00;;;3.97;;
6638;SDS011;3355;52.882;8.430;2023-07-13T08:18:49;6.17;;;4.50;;
6638;SDS011;3355;52.882;8.430;2023-07-13T08:21:16;6.80;;;4.53;;
6638;SDS011;3355;52.882;8.430;2023-07-13T08:23:45;8.43;;;4.60;;
6638;SDS011;3355;52.882;8.430;2023-07-13T08:26:11;5.77;;;4.00;;
6638;SDS011;3355;52.882;8.430;2023-07-13T08:28:38;9.90;;;4.70;;
6638;SDS011;3355;52.882;8.430;2023-07-13T08:31:07;7.90;;;4.77;;
6638;SDS011;3355;52.882;8.430;2023-07-13T08:33:34;6.17;;;4.33;;
6638;SDS011;3355;52.882;8.430;2023-07-13T08:36:01;4.80;;;4.10;;
6638;SDS011;3355;52.882;8.430;2023-07-13T08:38:28;4.37;;;3.97;;
6638;SDS011;3355;52.882;8.430;2023-07-13T08:40:55;5.03;;;4.43;;
6638;SDS011;3355;52.882;8.430;2023-07-13T08:43:25;4.63;;;4.10;;
6638;SDS011;3355;52.882;8.430;2023-07-13T08:45:53;6.00;;;4.27;;
6638;SDS011;3355;52.882;8.430;2023-07-13T08:48:27;5.40;;;4.20;;
6638;SDS011;3355;52.882;8.430;2023-07-13T08:50:57;5.43;;;4.27;;
6638;SDS011;3355;52.882;8.430;2023-07-13T08:53:26;4.10;;;3.67;;
6638;SDS011;3355;52.882;8.430;2023-07-13T08:55:57;6.03;;;4.50;;
6638;SDS011;3355;52.882;8.430;2023-07-13T08:58:25;4.90;;;4.10;;
6638;SDS011;3355;52.882;8.430;2023-07-13T09:00:55;5.30;;;4.47;;
6638;SDS011;3355;52.882;8.430;2023-07-13T09:03:28;5.20;;;4.70;;
6638;SDS011;3355;52.882;8.430;2023-07-13T09:05:57;4.30;;;3.77;;
6638;SDS011;3355;52.882;8.430;2023-07-13T09:08:33;4.10;;;3.33;;
6638;SDS011;3355;52.882;8.430;2023-07-13T09:11:16;4.30;;;3.87;;
6638;SDS011;3355;52.882;8.430;2023-07-13T09:13:50;7.70;;;4.27;;
6638;SDS011;3355;52.882;8.430;2023-07-13T09:16:23;5.47;;;4.30;;
6638;SDS011;3355;52.882;8.430;2023-07-13T09:18:52;4.90;;;4.40;;
6638;SDS011;3355;52.882;8.430;2023-07-13T09:21:23;4.80;;;4.40;;
6638;SDS011;3355;52.882;8.430;2023-07-13T09:23:53;4.83;;;4.13;;
6638;SDS011;3355;52.882;8.430;2023-07-13T09:26:22;4.93;;;3.60;;
6638;SDS011;3355;52.882;8.430;2023-07-13T09:28:51;5.10;;;4.00;;
6638;SDS011;3355;52.882;8.430;2023-07-13T09:31:32;4.70;;;3.47;;
6638;SDS011;3355;52.882;8.430;2023-07-13T09:34:03;4.43;;;4.03;;
6638;SDS011;3355;52.882;8.430;2023-07-13T09:36:33;5.07;;;3.90;;
6638;SDS011;3355;52.882;8.430;2023-07-13T09:39:02;6.00;;;4.27;;
6638;SDS011;3355;52.882;8.430;2023-07-13T09:41:33;4.27;;;3.37;;
6638;SDS011;3355;52.882;8.430;2023-07-13T09:44:08;3.47;;;3.17;;
6638;SDS011;3355;52.882;8.430;2023-07-13T09:46:36;4.10;;;3.70;;
6638;SDS011;3355;52.882;8.430;2023-07-13T09:49:06;4.30;;;3.17;;
6638;SDS011;3355;52.882;8.430;2023-07-13T09:51:36;3.87;;;2.90;;
6638;SDS011;3355;52.882;8.430;2023-07-13T09:54:03;4.83;;;2.93;;
6638;SDS011;3355;52.882;8.430;2023-07-13T09:56:30;10.80;;;3.30;;
6638;SDS011;3355;52.882;8.430;2023-07-13T09:58:58;5.67;;;3.30;;
6638;SDS011;3355;52.882;8.430;2023-07-13T10:01:32;5.30;;;3.77;;
6638;SDS011;3355;52.882;8.430;2023-07-13T10:04:00;4.30;;;3.60;;
6638;SDS011;3355;52.882;8.430;2023-07-13T10:06:28;6.10;;;3.97;;
6638;SDS011;3355;52.882;8.430;2023-07-13T10:08:56;3.50;;;3.20;;
6638;SDS011;3355;52.882;8.430;2023-07-13T10:11:24;4.10;;;3.67;;
6638;SDS011;3355;52.882;8.430;2023-07-13T10:13:54;3.90;;;3.60;;
6638;SDS011;3355;52.882;8.430;2023-07-13T10:16:23;3.50;;;2.90;;
6638;SDS011;3355;52.882;8.430;2023-07-13T10:18:51;4.00;;;2.80;;
6638;SDS011;3355;52.882;8.430;2023-07-13T10:21:22;5.10;;;3.33;;
6638;SDS011;3355;52.882;8.430;2023-07-13T10:23:53;3.90;;;2.73;;
6638;SDS011;3355;52.882;8.430;2023-07-13T10:26:23;3.50;;;3.17;;
6638;SDS011;3355;52.882;8.430;2023-07-13T10:28:54;3.50;;;3.20;;
6638;SDS011;3355;52.882;8.430;2023-07-13T10:31:23;4.60;;;3.17;;
6638;SDS011;3355;52.882;8.430;2023-07-13T10:33:50;5.43;;;3.70;;
6638;SDS011;3355;52.882;8.430;2023-07-13T10:36:19;4.60;;;2.83;;
6638;SDS011;3355;52.882;8.430;2023-07-13T10:38:50;5.90;;;2.50;;
6638;SDS011;3355;52.882;8.430;2023-07-13T10:41:20;3.60;;;2.90;;
6638;SDS011;3355;52.882;8.430;2023-07-13T10:43:49;6.63;;;2.20;;
6638;SDS011;3355;52.882;8.430;2023-07-13T10:46:18;5.00;;;2.53;;
6638;SDS011;3355;52.882;8.430;2023-07-13T10:48:48;3.87;;;2.00;;
6638;SDS011;3355;52.882;8.430;2023-07-13T10:51:17;2.57;;;2.07;;
6638;SDS011;3355;52.882;8.430;2023-07-13T10:53:46;5.47;;;2.70;;
6638;SDS011;3355;52.882;8.430;2023-07-13T10:56:24;4.97;;;2.70;;
6638;SDS011;3355;52.882;8.430;2023-07-13T10:59:01;5.10;;;2.67;;
6638;SDS011;3355;52.882;8.430;2023-07-13T11:01:39;3.07;;;2.00;;
6638;SDS011;3355;52.882;8.430;2023-07-13T11:04:08;3.30;;;3.00;;
6638;SDS011;3355;52.882;8.430;2023-07-13T11:06:40;3.53;;;2.77;;
6638;SDS011;3355;52.882;8.430;2023-07-13T11:09:18;3.03;;;2.73;;
6638;SDS011;3355;52.882;8.430;2023-07-13T11:12:00;4.67;;;3.50;;
6638;SDS011;3355;52.882;8.430;2023-07-13T11:14:31;3.40;;;3.10;;
6638;SDS011;3355;52.882;8.430;2023-07-13T11:19:51;4.33;;;3.70;;
6638;SDS011;3355;52.882;8.430;2023-07-13T11:22:22;4.07;;;3.47;;
6638;SDS011;3355;52.882;8.430;2023-07-13T11:24:52;4.40;;;2.70;;
6638;SDS011;3355;52.882;8.430;2023-07-13T11:30:31;7.60;;;3.20;;
6638;SDS011;3355;52.882;8.430;2023-07-13T11:33:07;3.87;;;2.00;;
6638;SDS011;3355;52.882;8.430;2023-07-13T11:35:40;1.90;;;1.40;;
6638;SDS011;3355;52.882;8.430;2023-07-13T11:38:12;3.47;;;2.30;;
6638;SDS011;3355;52.882;8.430;2023-07-13T11:40:42;2.80;;;1.80;;
6638;SDS011;3355;52.882;8.430;2023-07-13T11:43:13;2.20;;;1.90;;
6638;SDS011;3355;52.882;8.430;2023-07-13T11:45:40;2.67;;;2.00;;
6638;SDS011;3355;52.882;8.430;2023-07-13T11:48:17;2.60;;;1.83;;
6638;SDS011;3355;52.882;8.430;2023-07-13T11:50:49;2.37;;;1.70;;
6638;SDS011;3355;52.882;8.430;2023-07-13T11:53:20;2.73;;;1.90;;
6638;SDS011;3355;52.882;8.430;2023-07-13T11:55:47;5.33;;;1.87;;
6638;SDS011;3355;52.882;8.430;2023-07-13T11:58:16;3.47;;;2.27;;
6638;SDS011;3355;52.882;8.430;2023-07-13T12:00:46;3.13;;;1.47;;
6638;SDS011;3355;52.882;8.430;2023-07-13T12:03:13;2.67;;;1.63;;
6638;SDS011;3355;52.882;8.430;2023-07-13T12:05:54;4.37;;;1.50;;
6638;SDS011;3355;52.882;8.430;2023-07-13T12:08:23;2.33;;;1.67;;
6638;SDS011;3355;52.882;8.430;2023-07-13T12:10:56;2.07;;;1.40;;
6638;SDS011;3355;52.882;8.430;2023-07-13T12:13:25;1.77;;;1.43;;
6638;SDS011;3355;52.882;8.430;2023-07-13T12:15:53;2.30;;;1.10;;
6638;SDS011;3355;52.882;8.430;2023-07-13T12:18:21;2.50;;;1.50;;
6638;SDS011;3355;52.882;8.430;2023-07-13T12:20:49;4.23;;;1.30;;
6638;SDS011;3355;52.882;8.430;2023-07-13T12:23:21;2.90;;;1.07;;
6638;SDS011;3355;52.882;8.430;2023-07-13T12:25:52;1.60;;;0.93;;
6638;SDS011;3355;52.882;8.430;2023-07-13T12:28:22;1.53;;;1.03;;
6638;SDS011;3355;52.882;8.430;2023-07-13T12:30:59;2.07;;;1.47;;
6638;SDS011;3355;52.882;8.430;2023-07-13T12:33:27;1.93;;;1.00;;
6638;SDS011;3355;52.882;8.430;2023-07-13T12:35:55;1.80;;;1.10;;
6638;SDS011;3355;52.882;8.430;2023-07-13T12:38:24;2.17;;;1.10;;
6638;SDS011;3355;52.882;8.430;2023-07-13T12:40:51;1.70;;;1.20;;
6638;SDS011;3355;52.882;8.430;2023-07-13T12:43:19;3.90;;;1.20;;
6638;SDS011;3355;52.882;8.430;2023-07-13T12:45:56;2.50;;;1.77;;
6638;SDS011;3355;52.882;8.430;2023-07-13T12:48:26;1.83;;;1.30;;
6638;SDS011;3355;52.882;8.430;2023-07-13T12:50:54;2.00;;;1.00;;
6638;SDS011;3355;52.882;8.430;2023-07-13T12:53:22;1.97;;;1.10;;
6638;SDS011;3355;52.882;8.430;2023-07-13T12:55:50;2.70;;;1.47;;
6638;SDS011;3355;52.882;8.430;2023-07-13T12:58:21;1.30;;;0.90;;
6638;SDS011;3355;52.882;8.430;2023-07-13T13:00:53;2.10;;;1.30;;
6638;SDS011;3355;52.882;8.430;2023-07-13T13:03:24;2.30;;;1.40;;
6638;SDS011;3355;52.882;8.430;2023-07-13T13:05:58;2.03;;;1.40;;
6638;SDS011;3355;52.882;8.430;2023-07-13T13:08:27;2.17;;;1.70;;
6638;SDS011;3355;52.882;8.430;2023-07-13T13:10:54;2.10;;;1.37;;
6638;SDS011;3355;52.882;8.430;2023-07-13T13:13:21;2.03;;;1.70;;
6638;SDS011;3355;52.882;8.430;2023-07-13T13:15:48;2.83;;;2.37;;
6638;SDS011;3355;52.882;8.430;2023-07-13T13:18:15;2.60;;;2.23;;
6638;SDS011;3355;52.882;8.430;2023-07-13T13:20:45;4.57;;;2.20;;
6638;SDS011;3355;52.882;8.430;2023-07-13T13:23:12;3.30;;;2.50;;
6638;SDS011;3355;52.882;8.430;2023-07-13T13:25:42;4.50;;;2.87;;
6638;SDS011;3355;52.882;8.430;2023-07-13T13:28:13;4.47;;;3.53;;
6638;SDS011;3355;52.882;8.430;2023-07-13T13:30:41;6.20;;;3.70;;
6638;SDS011;3355;52.882;8.430;2023-07-13T13:33:09;4.00;;;3.33;;
6638;SDS011;3355;52.882;8.430;2023-07-13T13:35:37;4.27;;;3.80;;
6638;SDS011;3355;52.882;8.430;2023-07-13T13:38:07;5.30;;;3.50;;
6638;SDS011;3355;52.882;8.430;2023-07-13T13:40:36;5.20;;;3.70;;
6638;SDS011;3355;52.882;8.430;2023-07-13T13:43:04;7.50;;;4.63;;
6638;SDS011;3355;52.882;8.430;2023-07-13T13:45:36;4.03;;;3.63;;
6638;SDS011;3355;52.882;8.430;2023-07-13T13:48:03;3.97;;;3.63;;
6638;SDS011;3355;52.882;8.430;2023-07-13T13:50:30;5.00;;;3.77;;
6638;SDS011;3355;52.882;8.430;2023-07-13T13:52:56;4.87;;;3.97;;
6638;SDS011;3355;52.882;8.430;2023-07-13T13:55:24;5.27;;;3.93;;
6638;SDS011;3355;52.882;8.430;2023-07-13T13:57:51;5.27;;;4.00;;
6638;SDS011;3355;52.882;8.430;2023-07-13T14:00:20;5.17;;;3.87;;
6638;SDS011;3355;52.882;8.430;2023-07-13T14:02:47;5.00;;;4.43;;
6638;SDS011;3355;52.882;8.430;2023-07-13T14:05:17;4.60;;;4.00;;
6638;SDS011;3355;52.882;8.430;2023-07-13T14:07:46;7.23;;;3.90;;
6638;SDS011;3355;52.882;8.430;2023-07-13T14:10:15;5.10;;;4.27;;
6638;SDS011;3355;52.882;8.430;2023-07-13T14:12:44;5.20;;;4.33;;
6638;SDS011;3355;52.882;8.430;2023-07-13T14:15:13;5.73;;;4.47;;
6638;SDS011;3355;52.882;8.430;2023-07-13T14:17:44;6.60;;;4.20;;
6638;SDS011;3355;52.882;8.430;2023-07-13T14:20:11;4.73;;;4.10;;
6638;SDS011;3355;52.882;8.430;2023-07-13T14:22:38;5.03;;;4.17;;
6638;SDS011;3355;52.882;8.430;2023-07-13T14:25:05;5.30;;;4.70;;
6638;SDS011;3355;52.882;8.430;2023-07-13T14:27:32;6.37;;;5.13;;
6638;SDS011;3355;52.882;8.430;2023-07-13T14:30:00;5.37;;;4.87;;
6638;SDS011;3355;52.882;8.430;2023-07-13T14:32:27;6.30;;;5.70;;
6638;SDS011;3355;52.882;8.430;2023-07-13T14:34:54;6.73;;;5.17;;
6638;SDS011;3355;52.882;8.430;2023-07-13T14:37:21;5.83;;;5.33;;
6638;SDS011;3355;52.882;8.430;2023-07-13T14:39:47;6.80;;;5.70;;
6638;SDS011;3355;52.882;8.430;2023-07-13T14:42:16;7.90;;;5.90;;
6638;SDS011;3355;52.882;8.430;2023-07-13T14:44:43;7.87;;;5.80;;
6638;SDS011;3355;52.882;8.430;2023-07-13T14:47:11;6.83;;;5.90;;
6638;SDS011;3355;52.882;8.430;2023-07-13T14:49:38;5.40;;;4.90;;
6638;SDS011;3355;52.882;8.430;2023-07-13T14:52:08;6.30;;;5.27;;
6638;SDS011;3355;52.882;8.430;2023-07-13T14:54:38;4.97;;;4.27;;
6638;SDS011;3355;52.882;8.430;2023-07-13T14:57:08;6.27;;;4.67;;
6638;SDS011;3355;52.882;8.430;2023-07-13T14:59:35;4.83;;;4.33;;
6638;SDS011;3355;52.882;8.430;2023-07-13T15:02:02;5.37;;;4.80;;
6638;SDS011;3355;52.882;8.430;2023-07-13T15:04:36;4.73;;;4.30;;
6638;SDS011;3355;52.882;8.430;2023-07-13T15:07:03;4.13;;;3.73;;
6638;SDS011;3355;52.882;8.430;2023-07-13T15:09:30;4.43;;;3.63;;
6638;SDS011;3355;52.882;8.430;2023-07-13T15:11:57;4.40;;;4.00;;
6638;SDS011;3355;52.882;8.430;2023-07-13T15:14:24;5.63;;;3.80;;
6638;SDS011;3355;52.882;8.430;2023-07-13T15:16:52;5.97;;;4.07;;
6638;SDS011;3355;52.882;8.430;2023-07-13T15:19:19;5.20;;;4.57;;
6638;SDS011;3355;52.882;8.430;2023-07-13T15:21:49;5.97;;;4.30;;
6638;SDS011;3355;52.882;8.430;2023-07-13T15:24:17;4.73;;;4.20;;
6638;SDS011;3355;52.882;8.430;2023-07-13T15:26:43;4.03;;;3.30;;
6638;SDS011;3355;52.882;8.430;2023-07-13T15:29:13;3.80;;;3.40;;
6638;SDS011;3355;52.882;8.430;2023-07-13T15:31:40;4.00;;;3.40;;